createdAt,value
2019-05-01T00:01:00.107Z,38.98
2019-05-01T00:03:37.241Z,30.77
2019-05-01T00:06:08.221Z,32.17
2019-05-01T00:08:37.624Z,34.33
2019-05-01T00:11:07.042Z,33.40
2019-05-01T00:13:36.642Z,33.83
2019-05-01T00:16:05.934Z,29.50
2019-05-01T00:18:36.025Z,32.50
2019-05-01T00:21:05.927Z,33.33
2019-05-01T00:23:35.590Z,29.50
2019-05-01T00:26:05.466Z,34.53
2019-05-01T00:28:34.638Z,31.65
2019-05-01T00:31:04.136Z,33.18
2019-05-01T00:33:33.481Z,32.75
2019-05-01T00:36:02.838Z,32.90
2019-05-01T00:38:32.152Z,36.58
2019-05-01T00:41:01.628Z,38.17
2019-05-01T00:43:31.028Z,38.83
2019-05-01T00:46:00.462Z,33.23
2019-05-01T00:48:29.953Z,37.78
2019-05-01T00:50:59.312Z,36.40
2019-05-01T00:53:28.615Z,37.45
2019-05-01T00:56:05.344Z,39.35
2019-05-01T00:58:36.242Z,37.95
2019-05-01T01:01:07.142Z,42.15
2019-05-01T01:03:36.927Z,40.35
2019-05-01T01:06:06.156Z,38.70
2019-05-01T01:08:35.601Z,38.42
2019-05-01T01:11:04.805Z,41.48
2019-05-01T01:13:34.083Z,36.40
2019-05-01T01:16:03.293Z,43.80
2019-05-01T01:18:32.518Z,42.05
2019-05-01T01:21:01.735Z,40.23
2019-05-01T01:23:30.986Z,40.10
2019-05-01T01:26:00.180Z,46.58
2019-05-01T01:28:29.444Z,37.67
2019-05-01T01:30:58.899Z,42.93
2019-05-01T01:33:28.277Z,44.13
2019-05-01T01:35:57.526Z,43.08
2019-05-01T01:38:26.708Z,42.10
2019-05-01T01:40:55.967Z,40.70
2019-05-01T01:43:42.650Z,42.25
2019-05-01T01:46:18.898Z,45.67
2019-05-01T01:48:48.196Z,43.45
2019-05-01T01:51:17.513Z,43.92
2019-05-01T01:53:49.420Z,41.58
2019-05-01T01:56:18.655Z,43.17
2019-05-01T01:58:47.842Z,43.38
2019-05-01T02:01:34.428Z,43.78
2019-05-01T02:04:05.277Z,44.35
2019-05-01T02:06:34.458Z,36.75
2019-05-01T02:09:03.849Z,41.98
2019-05-01T02:11:33.114Z,46.75
2019-05-01T02:14:02.444Z,42.67
2019-05-01T02:16:31.778Z,40.50
2019-05-01T02:19:01.010Z,39.15
2019-05-01T02:21:30.413Z,39.78
2019-05-01T02:23:59.662Z,38.35
2019-05-01T02:26:31.133Z,39.07
2019-05-01T02:29:17.462Z,33.55
2019-05-01T02:31:51.492Z,30.23
2019-05-01T02:34:20.758Z,29.35
2019-05-01T02:36:51.392Z,34.20
2019-05-01T02:41:50.083Z,29.32
2019-05-01T02:44:42.101Z,31.20
2019-05-01T02:47:13.645Z,29.48
2019-05-01T02:49:55.938Z,30.20
2019-05-01T02:52:28.649Z,29.12
2019-05-01T02:54:59.169Z,28.27
2019-05-01T02:59:57.005Z,26.68
2019-05-01T03:02:26.239Z,30.55
2019-05-01T03:04:55.544Z,28.55
2019-05-01T03:07:25.044Z,29.75
2019-05-01T03:09:54.499Z,27.10
2019-05-01T03:12:24.370Z,27.40
2019-05-01T03:14:53.574Z,26.42
2019-05-01T03:17:40.483Z,28.20
2019-05-01T03:20:27.324Z,31.62
2019-05-01T03:23:13.326Z,29.50
2019-05-01T03:25:42.955Z,31.02
2019-05-01T03:28:12.910Z,35.17
2019-05-01T03:30:42.219Z,32.35
2019-05-01T03:33:11.448Z,38.17
2019-05-01T03:35:40.859Z,39.33
2019-05-01T03:38:10.153Z,46.73
2019-05-01T03:40:39.371Z,47.35
2019-05-01T03:43:08.629Z,47.58
2019-05-01T03:45:39.039Z,49.50
2019-05-01T03:48:08.275Z,46.45
2019-05-01T03:50:37.556Z,50.70
2019-05-01T03:53:06.760Z,50.23
2019-05-01T03:55:36.032Z,51.00
2019-05-01T03:58:05.588Z,54.40
2019-05-01T04:00:39.644Z,47.27
2019-05-01T04:03:28.524Z,55.60
2019-05-01T04:05:58.026Z,56.58
2019-05-01T04:08:27.352Z,50.60
2019-05-01T04:10:56.695Z,52.95
2019-05-01T04:13:25.994Z,53.73
2019-05-01T04:15:55.174Z,58.15
2019-05-01T04:18:24.878Z,56.00
2019-05-01T04:20:54.233Z,57.23
2019-05-01T04:23:23.533Z,55.90
2019-05-01T04:25:52.983Z,56.53
2019-05-01T04:28:26.600Z,60.43
2019-05-01T04:31:09.383Z,60.67
2019-05-01T04:33:40.422Z,57.53
2019-05-01T04:36:19.792Z,53.38
2019-05-01T04:38:49.107Z,56.20
2019-05-01T04:41:18.398Z,55.60
2019-05-01T04:43:47.760Z,58.23
2019-05-01T04:46:17.047Z,55.33
2019-05-01T04:48:46.284Z,56.68
2019-05-01T04:51:15.580Z,48.35
2019-05-01T05:56:44.956Z,39.58
2019-05-01T06:08:12.113Z,40.83
2019-05-01T06:22:10.352Z,44.18
2019-05-01T06:27:24.406Z,44.63
2019-05-01T06:32:43.063Z,38.00
2019-05-01T06:43:25.762Z,42.80
2019-05-01T06:59:26.141Z,41.28
2019-05-01T07:01:58.438Z,41.95
2019-05-01T07:04:25.710Z,50.63
2019-05-01T07:06:54.932Z,40.12
2019-05-01T07:09:28.169Z,43.05
2019-05-01T07:11:55.402Z,38.15
2019-05-01T07:14:24.768Z,42.13
2019-05-01T07:16:54.629Z,42.70
2019-05-01T07:19:25.542Z,37.38
2019-05-01T07:21:54.781Z,36.70
2019-05-01T07:24:27.874Z,43.90
2019-05-01T07:30:10.817Z,39.13
2019-05-01T07:32:41.052Z,41.63
2019-05-01T07:35:11.057Z,42.90
2019-05-01T07:37:41.881Z,39.67
2019-05-01T07:40:11.190Z,38.48
2019-05-01T07:42:48.410Z,33.63
2019-05-01T07:45:38.879Z,35.28
2019-05-01T07:48:09.504Z,43.13
2019-05-01T07:50:38.732Z,37.00
2019-05-01T07:53:08.134Z,34.38
2019-05-01T07:55:37.414Z,37.08
2019-05-01T07:58:15.965Z,32.10
2019-05-01T08:00:53.086Z,33.13
2019-05-01T08:03:24.452Z,33.75
2019-05-01T08:05:53.985Z,37.20
2019-05-01T08:08:39.571Z,35.80
2019-05-01T08:14:07.353Z,30.47
2019-05-01T08:16:30.005Z,34.03
2019-05-01T08:19:04.103Z,31.90
2019-05-01T08:21:34.736Z,32.65
2019-05-01T08:24:04.493Z,33.90
2019-05-01T08:26:34.256Z,29.40
2019-05-01T08:29:23.638Z,30.50
2019-05-01T08:42:57.468Z,32.38
2019-05-01T08:45:44.645Z,30.87
2019-05-01T08:48:19.753Z,34.40
2019-05-01T08:50:54.581Z,37.05
2019-05-01T10:05:28.639Z,37.28
2019-05-01T10:07:55.267Z,36.77
2019-05-01T10:10:28.883Z,43.75
2019-05-01T10:15:31.837Z,39.55
2019-05-01T10:18:01.157Z,39.60
2019-05-01T11:15:37.863Z,44.75
2019-05-01T11:37:09.991Z,45.75
2019-05-01T11:39:49.620Z,65.70
2019-05-01T11:42:19.348Z,55.53
2019-05-01T11:44:48.672Z,46.60
2019-05-01T11:47:17.942Z,46.05
2019-05-01T11:49:47.360Z,46.88
2019-05-01T11:52:16.952Z,46.13
2019-05-01T11:54:46.275Z,52.93
2019-05-01T12:02:41.188Z,45.90
2019-05-01T12:05:11.044Z,50.17
2019-05-01T12:10:45.536Z,59.63
2019-05-01T12:13:15.763Z,49.83
2019-05-01T13:03:06.741Z,58.65
2019-05-01T13:08:36.033Z,58.23
2019-05-01T13:22:50.356Z,65.50
2019-05-01T13:25:23.929Z,59.15
2019-05-01T13:28:10.673Z,61.85
2019-05-01T13:30:47.445Z,60.50
2019-05-01T13:33:17.684Z,60.23
2019-05-01T13:35:47.268Z,65.60
2019-05-01T13:38:17.158Z,61.73
2019-05-01T13:40:46.947Z,67.20
2019-05-01T13:43:16.762Z,67.42
2019-05-01T13:45:46.195Z,67.42
2019-05-01T13:48:16.258Z,65.30
2019-05-01T13:50:46.063Z,61.70
2019-05-01T13:53:15.703Z,60.83
2019-05-01T13:55:45.705Z,65.87
2019-05-01T13:58:15.296Z,64.90
2019-05-01T14:00:45.171Z,66.20
2019-05-01T14:03:14.819Z,65.62
2019-05-01T14:05:44.114Z,69.12
2019-05-01T14:08:13.379Z,67.85
2019-05-01T14:10:42.612Z,64.40
2019-05-01T14:13:11.905Z,63.98
2019-05-01T14:15:41.158Z,67.90
2019-05-01T14:18:10.361Z,68.60
2019-05-01T14:20:56.919Z,71.53
2019-05-01T14:23:33.506Z,68.72
2019-05-01T14:26:06.342Z,66.62
2019-05-01T14:28:36.169Z,65.92
2019-05-01T14:31:06.498Z,68.35
2019-05-01T14:33:35.825Z,87.75
2019-05-01T14:36:05.388Z,67.60
2019-05-01T14:38:34.655Z,73.07
2019-05-01T14:41:03.985Z,87.90
2019-05-01T14:43:33.323Z,67.03
2019-05-01T14:46:02.585Z,72.95
2019-05-01T14:48:31.885Z,71.50
2019-05-01T14:51:01.230Z,64.97
2019-05-01T14:53:30.468Z,64.32
2019-05-01T14:55:59.963Z,65.15
2019-05-01T14:58:29.191Z,63.67
2019-05-01T15:00:58.405Z,65.08
2019-05-01T15:03:27.650Z,64.70
2019-05-01T15:05:56.887Z,61.18
2019-05-01T15:08:26.098Z,62.15
2019-05-01T15:10:55.359Z,69.00
2019-05-01T15:13:32.891Z,62.80
2019-05-01T15:16:03.813Z,70.65
2019-05-01T15:18:50.483Z,60.05
2019-05-01T15:21:19.893Z,65.67
2019-05-01T15:23:53.837Z,62.08
2019-05-01T15:26:20.110Z,61.37
2019-05-01T15:28:49.474Z,60.43
2019-05-01T15:31:18.846Z,55.50
2019-05-01T15:33:48.346Z,59.67
2019-05-01T15:36:18.137Z,53.23
2019-05-01T15:38:47.419Z,56.73
2019-05-01T15:41:29.717Z,54.27
2019-05-01T15:44:06.356Z,50.45
2019-05-01T15:46:37.346Z,52.23
2019-05-01T15:49:06.561Z,55.67
2019-05-01T15:51:35.848Z,52.23
2019-05-01T15:54:05.103Z,48.55
2019-05-01T15:56:34.381Z,46.35
2019-05-01T15:59:03.648Z,43.98
2019-05-01T16:01:32.936Z,43.73
2019-05-01T16:04:02.274Z,39.33
2019-05-01T16:06:31.546Z,40.78
2019-05-01T16:09:01.086Z,40.25
2019-05-01T16:11:31.931Z,36.95
2019-05-01T16:14:01.889Z,38.02
2019-05-01T16:16:31.098Z,32.70
2019-05-01T16:19:00.306Z,35.40
2019-05-01T16:21:29.684Z,35.03
2019-05-01T16:23:59.022Z,35.00
2019-05-01T16:26:28.281Z,36.83
2019-05-01T16:28:57.628Z,34.43
2019-05-01T16:31:27.082Z,35.65
2019-05-01T16:33:56.680Z,37.60
2019-05-01T16:36:25.898Z,36.58
2019-05-01T16:39:02.788Z,37.70
2019-05-01T16:41:32.372Z,36.28
2019-05-01T16:44:01.684Z,33.40
2019-05-01T16:46:30.945Z,34.80
2019-05-01T16:49:00.278Z,32.33
2019-05-01T16:51:29.491Z,36.00
2019-05-01T16:53:58.753Z,39.27
2019-05-01T16:56:27.949Z,33.98
2019-05-01T16:58:57.212Z,31.27
2019-05-01T17:01:28.073Z,34.60
2019-05-01T17:04:01.384Z,29.30
2019-05-01T17:06:40.988Z,30.40
2019-05-01T17:09:30.038Z,28.05
2019-05-01T17:11:59.382Z,34.25
2019-05-01T17:14:28.742Z,35.63
2019-05-01T17:16:58.074Z,33.48
2019-05-01T17:19:27.341Z,31.70
2019-05-01T17:21:56.587Z,26.52
2019-05-01T17:24:25.780Z,28.17
2019-05-01T17:26:55.206Z,25.27
2019-05-01T17:29:24.410Z,27.10
2019-05-01T17:31:53.591Z,22.67
2019-05-01T17:34:25.596Z,25.15
2019-05-01T17:36:53.910Z,26.12
2019-05-01T17:39:23.478Z,23.77
2019-05-01T17:41:52.756Z,25.40
2019-05-01T17:44:25.238Z,24.60
2019-05-01T17:46:52.978Z,25.23
2019-05-01T17:49:22.285Z,22.32
2019-05-01T17:51:51.558Z,26.42
2019-05-01T17:54:20.786Z,25.40
2019-05-01T17:56:53.874Z,22.52
2019-05-01T17:59:21.195Z,28.27
2019-05-01T18:02:11.483Z,21.48
2019-05-01T18:04:42.463Z,26.05
2019-05-01T18:07:11.652Z,26.00
2019-05-01T18:09:40.963Z,27.60
2019-05-01T18:12:10.211Z,26.45
2019-05-01T18:14:39.423Z,23.67
2019-05-01T18:17:08.953Z,23.15
2019-05-01T18:19:39.105Z,26.33
2019-05-01T18:22:12.537Z,24.63
2019-05-01T18:24:43.480Z,23.22
2019-05-01T18:27:27.591Z,33.20
2019-05-01T18:29:59.206Z,32.63
2019-05-01T18:32:36.418Z,21.25
2019-05-01T18:35:08.885Z,24.82
2019-05-01T18:37:40.151Z,26.93
2019-05-01T18:40:11.116Z,25.23
2019-05-01T18:42:40.465Z,26.40
2019-05-01T18:45:13.411Z,30.62
2019-05-01T18:47:42.772Z,23.95
2019-05-01T18:50:13.575Z,25.00
2019-05-01T18:52:43.051Z,29.50
2019-05-01T18:55:12.309Z,28.40
2019-05-01T18:57:41.783Z,23.32
2019-05-01T19:00:11.112Z,26.20
2019-05-01T19:02:40.739Z,25.15
2019-05-01T19:05:10.716Z,25.80
2019-05-01T19:07:40.227Z,30.65
2019-05-01T19:10:09.669Z,25.17
2019-05-01T19:12:38.945Z,25.62
2019-05-01T19:15:08.291Z,26.35
2019-05-01T19:17:37.742Z,30.25
2019-05-01T19:20:07.752Z,28.65
2019-05-01T19:22:37.126Z,29.30
2019-05-01T19:25:10.899Z,37.50
2019-05-01T19:27:37.616Z,23.80
2019-05-01T19:30:09.758Z,23.57
2019-05-01T19:32:39.125Z,26.23
2019-05-01T19:35:08.532Z,28.10
2019-05-01T19:37:37.820Z,26.70
2019-05-01T19:40:07.160Z,27.07
2019-05-01T19:42:36.479Z,26.82
2019-05-01T19:45:07.195Z,32.80
2019-05-01T19:47:36.596Z,27.07
2019-05-01T19:50:09.501Z,25.17
2019-05-01T19:52:39.904Z,28.85
2019-05-01T19:55:09.302Z,25.00
2019-05-01T19:57:38.545Z,23.50
2019-05-01T20:00:08.237Z,22.82
2019-05-01T20:02:38.049Z,27.17
2019-05-01T20:05:11.075Z,28.57
2019-05-01T20:07:42.505Z,23.05
2019-05-01T20:10:12.025Z,28.27
2019-05-01T20:12:41.660Z,28.47
2019-05-01T20:15:11.189Z,31.30
2019-05-01T20:17:40.485Z,29.72
2019-05-01T20:20:09.818Z,28.35
2019-05-01T20:22:39.237Z,28.50
2019-05-01T20:25:08.622Z,30.75
2019-05-01T20:27:40.122Z,28.70
2019-05-01T20:30:09.181Z,25.60
2019-05-01T20:32:38.637Z,30.50
2019-05-01T20:35:07.915Z,28.25
2019-05-01T20:37:37.153Z,31.60
2019-05-01T20:40:11.370Z,26.85
2019-05-01T20:42:38.330Z,29.72
2019-05-01T20:45:17.338Z,32.10
2019-05-01T20:47:46.249Z,29.00
2019-05-01T20:50:14.067Z,30.40
2019-05-01T20:55:12.111Z,29.90
2019-05-01T20:57:45.752Z,39.00
2019-05-01T21:00:16.943Z,33.65
2019-05-01T21:02:47.420Z,33.98
2019-05-01T21:05:18.565Z,33.13
2019-05-01T21:07:56.670Z,35.98
2019-05-01T21:10:29.802Z,31.30
2019-05-01T21:12:59.007Z,35.38
2019-05-01T21:15:28.327Z,31.05
2019-05-01T21:17:57.615Z,33.38
2019-05-01T21:20:26.885Z,36.35
2019-05-01T21:22:56.388Z,32.83
2019-05-01T21:25:25.757Z,33.63
2019-05-01T21:27:55.099Z,36.08
2019-05-01T21:30:24.390Z,33.28
2019-05-01T21:32:54.196Z,39.65
2019-05-01T21:35:24.018Z,38.48
2019-05-01T21:37:53.805Z,34.63
2019-05-01T21:40:23.586Z,36.20
2019-05-01T21:42:55.792Z,32.78
2019-05-01T21:45:23.982Z,36.80
2019-05-01T21:47:53.423Z,34.88
2019-05-01T21:50:26.354Z,39.30
2019-05-01T21:52:58.033Z,38.63
2019-05-01T21:55:25.673Z,36.83
2019-05-01T21:57:56.791Z,36.48
2019-05-01T22:00:27.775Z,36.30
2019-05-01T22:02:57.195Z,37.15
2019-05-01T22:05:26.632Z,40.33
2019-05-01T22:07:58.670Z,34.43
2019-05-01T22:10:28.418Z,36.00
2019-05-01T22:12:57.911Z,40.00
2019-05-01T22:15:32.011Z,40.78
2019-05-01T22:18:11.767Z,38.35
2019-05-01T22:20:45.837Z,38.53
2019-05-01T22:23:21.997Z,37.38
2019-05-01T22:25:52.259Z,41.75
2019-05-01T22:28:23.242Z,38.20
2019-05-01T22:30:54.202Z,43.87
2019-05-01T22:33:23.403Z,39.42
2019-05-01T22:35:53.824Z,42.17
2019-05-01T22:38:23.429Z,38.40
2019-05-01T22:41:06.079Z,39.95
2019-05-01T22:43:27.695Z,37.45
2019-05-01T22:46:01.548Z,35.95
2019-05-01T22:48:27.839Z,38.92
2019-05-01T22:50:58.817Z,39.18
2019-05-01T22:53:28.023Z,42.83
2019-05-01T22:56:02.219Z,37.40
2019-05-01T22:58:28.800Z,41.95
2019-05-01T23:00:59.880Z,44.08
2019-05-01T23:03:31.171Z,39.05
2019-05-01T23:06:01.976Z,38.58
2019-05-01T23:08:31.537Z,40.98
2019-05-01T23:11:00.942Z,39.92
2019-05-01T23:13:30.212Z,41.15
2019-05-01T23:15:59.733Z,40.75
2019-05-01T23:18:29.247Z,39.80
2019-05-01T23:20:58.644Z,45.28
2019-05-01T23:23:28.443Z,43.55
2019-05-01T23:25:58.230Z,41.10
2019-05-01T23:28:28.206Z,48.78
2019-05-01T23:30:58.338Z,40.95
2019-05-01T23:33:28.301Z,42.15
2019-05-01T23:35:58.185Z,42.30
2019-05-01T23:38:27.959Z,43.35
2019-05-01T23:40:57.438Z,41.67
2019-05-01T23:43:28.980Z,43.20
2019-05-01T23:45:58.639Z,41.45
2019-05-01T23:48:27.867Z,39.75
2019-05-01T23:50:57.292Z,45.35
2019-05-01T23:53:26.944Z,40.80
2019-05-01T23:56:00.190Z,49.70
2019-05-01T23:58:27.698Z,41.63
